createdAt,value
2022-08-17T00:00:42.663Z,19.27
2022-08-17T00:03:10.986Z,19.23
2022-08-17T00:05:46.071Z,19.30
2022-08-17T00:08:15.925Z,19.36
2022-08-17T00:10:46.709Z,19.26
2022-08-17T00:13:21.415Z,19.26
2022-08-17T00:15:50.092Z,19.27
2022-08-17T00:19:01.476Z,19.55
2022-08-17T00:21:10.928Z,19.77
2022-08-17T00:23:47.771Z,19.81
2022-08-17T00:26:43.489Z,19.85
2022-08-17T00:29:08.323Z,19.77
2022-08-17T00:31:37.362Z,19.79
2022-08-17T00:34:08.797Z,19.75
2022-08-17T00:36:38.597Z,19.60
2022-08-17T00:39:07.122Z,19.34
2022-08-17T00:41:35.933Z,19.16
2022-08-17T00:44:07.862Z,18.98
2022-08-17T00:46:39.315Z,18.91
2022-08-17T00:49:08.563Z,18.67
2022-08-17T00:51:43.387Z,18.85
2022-08-17T00:54:15.135Z,18.71
2022-08-17T00:56:48.555Z,18.52
2022-08-17T00:59:20.652Z,18.68
2022-08-17T01:01:50.459Z,18.31
2022-08-17T01:04:24.028Z,18.36
2022-08-17T01:06:56.727Z,18.27
2022-08-17T01:09:24.977Z,18.54
2022-08-17T01:11:53.448Z,18.50
2022-08-17T01:14:22.764Z,18.48
2022-08-17T01:16:54.158Z,18.62
2022-08-17T01:19:26.009Z,18.82
2022-08-17T01:22:02.249Z,18.79
2022-08-17T01:24:33.846Z,18.85
2022-08-17T01:27:02.026Z,18.87
2022-08-17T01:29:32.961Z,18.88
2022-08-17T01:32:04.979Z,18.71
2022-08-17T01:34:42.613Z,18.62
2022-08-17T01:37:12.199Z,18.84
2022-08-17T01:39:44.983Z,18.81
2022-08-17T01:42:21.965Z,18.64
2022-08-17T01:44:54.432Z,18.50
2022-08-17T01:47:22.612Z,18.50
2022-08-17T01:49:52.423Z,18.55
2022-08-17T01:52:22.255Z,18.58
2022-08-17T01:54:53.507Z,18.52
2022-08-17T01:57:21.538Z,18.67
2022-08-17T01:59:49.943Z,18.72
2022-08-17T02:02:30.616Z,18.51
2022-08-17T02:05:00.008Z,18.47
2022-08-17T02:07:28.278Z,18.68
2022-08-17T02:09:58.574Z,18.69
2022-08-17T02:12:39.510Z,18.55
2022-08-17T02:15:09.994Z,18.71
2022-08-17T02:17:40.555Z,18.47
2022-08-17T02:20:09.938Z,18.22
2022-08-17T02:22:40.236Z,18.20
2022-08-17T02:25:13.135Z,18.03
2022-08-17T02:27:41.357Z,17.96
2022-08-17T02:30:59.350Z,17.96
2022-08-17T02:33:04.341Z,18.12
2022-08-17T02:35:37.496Z,18.17
2022-08-17T02:38:06.259Z,18.06
2022-08-17T02:40:37.366Z,18.07
2022-08-17T02:43:05.962Z,18.10
2022-08-17T02:45:34.143Z,18.07
2022-08-17T02:48:02.323Z,18.23
2022-08-17T02:50:30.707Z,18.29
2022-08-17T02:53:01.684Z,18.41
2022-08-17T02:55:33.803Z,18.38
2022-08-17T02:58:03.952Z,18.20
2022-08-17T03:00:35.014Z,18.16
2022-08-17T03:03:04.153Z,18.17
2022-08-17T03:05:35.044Z,18.31
2022-08-17T03:08:04.067Z,18.31
2022-08-17T03:10:32.478Z,18.23
2022-08-17T03:13:00.682Z,18.12
2022-08-17T03:15:32.600Z,17.92
2022-08-17T03:18:01.799Z,17.81
2022-08-17T03:20:32.623Z,17.72
2022-08-17T03:23:01.751Z,17.61
2022-08-17T03:25:39.229Z,17.72
2022-08-17T03:28:08.472Z,17.82
2022-08-17T03:30:38.312Z,17.61
2022-08-17T03:33:10.055Z,17.55
2022-08-17T03:35:41.414Z,17.83
2022-08-17T03:38:10.959Z,18.03
2022-08-17T03:40:57.714Z,17.85
2022-08-17T03:43:29.469Z,18.07
2022-08-17T03:46:27.899Z,18.00
2022-08-17T03:49:20.517Z,18.22
2022-08-17T03:52:05.899Z,18.14
2022-08-17T03:54:51.234Z,18.16
2022-08-17T03:57:19.684Z,17.86
2022-08-17T03:59:48.970Z,17.71
2022-08-17T04:02:21.117Z,17.57
2022-08-17T04:04:51.427Z,17.55
2022-08-17T04:07:19.952Z,17.47
2022-08-17T04:09:48.522Z,17.52
2022-08-17T04:12:17.299Z,17.57
2022-08-17T04:14:52.977Z,17.66
2022-08-17T04:17:26.965Z,17.97
2022-08-17T04:19:56.424Z,18.23
2022-08-17T04:22:31.994Z,18.34
2022-08-17T04:25:08.914Z,18.45
2022-08-17T04:27:37.161Z,18.61
2022-08-17T04:30:07.974Z,18.69
2022-08-17T04:33:05.087Z,18.79
2022-08-17T04:35:47.226Z,18.85
2022-08-17T04:38:18.218Z,19.00
2022-08-17T04:41:04.353Z,18.82
2022-08-17T04:43:33.825Z,18.96
2022-08-17T04:46:06.076Z,19.36
2022-08-17T04:48:37.870Z,19.65
2022-08-17T04:51:13.769Z,19.85
2022-08-17T04:53:44.210Z,20.11
2022-08-17T04:56:16.092Z,20.25
2022-08-17T04:58:46.963Z,20.80
2022-08-17T05:01:15.713Z,20.96
2022-08-17T05:03:45.914Z,21.16
2022-08-17T05:06:14.211Z,21.19
2022-08-17T05:08:42.742Z,21.05
2022-08-17T05:11:11.137Z,21.02
2022-08-17T05:13:39.412Z,21.06
2022-08-17T05:16:09.180Z,21.28
2022-08-17T05:18:38.955Z,21.46
2022-08-17T05:21:09.510Z,21.90
2022-08-17T05:23:42.893Z,22.09
2022-08-17T05:26:25.712Z,22.39
2022-08-17T05:28:57.198Z,22.69
2022-08-17T05:31:28.588Z,22.89
2022-08-17T05:33:57.336Z,23.06
2022-08-17T05:36:41.764Z,23.30
2022-08-17T05:39:16.614Z,23.30
2022-08-17T05:41:47.111Z,23.42
2022-08-17T05:44:15.319Z,23.69
2022-08-17T05:46:48.903Z,23.68
2022-08-17T05:49:28.335Z,23.73
2022-08-17T05:52:20.025Z,23.85
2022-08-17T05:55:06.171Z,23.93
2022-08-17T05:57:52.907Z,24.02
2022-08-17T06:00:30.368Z,24.02
2022-08-17T06:03:19.772Z,24.21
2022-08-17T06:06:04.427Z,24.20
2022-08-17T06:08:40.919Z,24.31
2022-08-17T06:11:20.550Z,24.43
2022-08-17T06:14:18.145Z,24.57
2022-08-17T06:16:50.607Z,24.61
2022-08-17T06:19:23.997Z,24.67
2022-08-17T06:21:55.614Z,24.89
2022-08-17T06:24:30.060Z,25.00
2022-08-17T06:27:03.042Z,25.16
2022-08-17T06:29:39.983Z,25.17
2022-08-17T06:32:12.789Z,25.22
2022-08-17T06:34:43.219Z,25.27
2022-08-17T06:37:31.748Z,25.43
2022-08-17T06:40:20.943Z,25.55
2022-08-17T06:43:06.734Z,25.74
2022-08-17T06:45:40.432Z,25.99
2022-08-17T06:48:13.944Z,26.12
2022-08-17T06:50:49.118Z,26.29
2022-08-17T06:53:23.645Z,26.22
2022-08-17T06:55:59.956Z,26.18
2022-08-17T06:58:31.578Z,26.22
2022-08-17T07:01:07.745Z,26.28
2022-08-17T07:03:40.940Z,26.37
2022-08-17T07:06:18.197Z,26.54
2022-08-17T07:08:54.165Z,26.70
2022-08-17T07:11:31.720Z,26.80
2022-08-17T07:14:17.001Z,26.80
2022-08-17T07:16:48.552Z,26.90
2022-08-17T07:19:18.258Z,26.95
2022-08-17T07:21:55.192Z,27.06
2022-08-17T07:24:35.707Z,27.15
2022-08-17T07:27:12.642Z,27.21
2022-08-17T07:29:49.541Z,27.14
2022-08-17T07:32:23.411Z,27.25
2022-08-17T07:35:03.142Z,27.60
2022-08-17T07:37:34.535Z,27.76
2022-08-17T07:40:24.843Z,27.77
2022-08-17T07:43:18.829Z,28.05
2022-08-17T07:46:22.705Z,27.98
2022-08-17T07:48:54.142Z,28.19
2022-08-17T07:51:26.655Z,28.46
2022-08-17T07:54:13.205Z,28.53
2022-08-17T07:56:45.805Z,28.53
2022-08-17T07:59:23.042Z,28.73
2022-08-17T08:02:06.315Z,28.77
2022-08-17T08:07:29.571Z,28.86
2022-08-17T08:10:09.491Z,29.04
2022-08-17T08:12:40.496Z,29.27
2022-08-17T08:15:19.170Z,29.30
2022-08-17T08:17:50.682Z,29.35
2022-08-17T08:20:37.750Z,29.47
2022-08-17T08:23:28.655Z,29.62
2022-08-17T08:26:18.384Z,29.89
2022-08-17T08:28:54.624Z,30.06
2022-08-17T08:31:31.695Z,30.21
2022-08-17T08:34:58.787Z,30.28
2022-08-17T08:37:16.479Z,30.20
2022-08-17T08:39:58.132Z,30.44
2022-08-17T08:42:34.906Z,30.34
2022-08-17T08:45:09.598Z,30.52
2022-08-17T08:47:58.260Z,30.72
2022-08-17T08:50:40.366Z,30.95
2022-08-17T08:53:18.967Z,30.89
2022-08-17T08:55:53.563Z,31.03
2022-08-17T08:58:41.830Z,31.19
2022-08-17T09:01:29.435Z,31.26
2022-08-17T09:04:24.601Z,31.37
2022-08-17T09:07:06.180Z,31.47
2022-08-17T09:09:43.646Z,31.44
2022-08-17T09:12:22.470Z,31.46
2022-08-17T09:14:59.577Z,31.34
2022-08-17T09:17:40.192Z,31.71
2022-08-17T09:20:27.658Z,31.68
2022-08-17T09:23:03.380Z,32.06
2022-08-17T09:25:36.267Z,31.95
2022-08-17T09:28:07.955Z,31.94
2022-08-17T09:30:42.451Z,32.23
2022-08-17T09:33:12.653Z,32.47
2022-08-17T09:35:46.456Z,32.40
2022-08-17T09:38:25.072Z,32.53
2022-08-17T09:41:07.570Z,32.25
2022-08-17T09:43:45.951Z,32.52
2022-08-17T09:46:27.524Z,32.40
2022-08-17T09:49:03.321Z,32.15
2022-08-17T09:51:37.520Z,32.67
2022-08-17T09:54:38.077Z,32.95
2022-08-17T09:57:29.671Z,32.91
2022-08-17T10:00:18.720Z,33.22
2022-08-17T10:03:04.567Z,33.28
2022-08-17T10:05:46.512Z,33.00
2022-08-17T10:08:27.697Z,33.46
2022-08-17T10:11:08.042Z,33.93
2022-08-17T10:13:53.393Z,33.90
2022-08-17T10:16:29.139Z,34.13
2022-08-17T10:19:16.521Z,33.69
2022-08-17T10:22:14.971Z,33.76
2022-08-17T10:25:20.975Z,33.42
2022-08-17T10:27:56.153Z,33.63
2022-08-17T10:30:27.867Z,33.58
2022-08-17T10:32:59.314Z,33.93
2022-08-17T10:35:36.462Z,34.14
2022-08-17T10:38:32.144Z,34.27
2022-08-17T10:41:07.766Z,34.52
2022-08-17T10:43:54.430Z,34.79
2022-08-17T10:46:52.200Z,35.17
2022-08-17T10:49:35.867Z,35.10
2022-08-17T10:52:28.016Z,34.69
2022-08-17T10:55:14.723Z,34.03
2022-08-17T10:57:46.776Z,34.43
2022-08-17T11:00:59.350Z,34.83
2022-08-17T11:03:27.925Z,34.20
2022-08-17T11:06:03.545Z,33.86
2022-08-17T11:09:03.569Z,34.14
2022-08-17T11:12:06.710Z,34.52
2022-08-17T11:14:50.707Z,34.72
2022-08-17T11:17:41.543Z,34.86
2022-08-17T11:20:38.122Z,34.81
2022-08-17T11:23:32.996Z,34.23
2022-08-17T11:26:08.674Z,34.68
2022-08-17T11:28:52.612Z,34.65
2022-08-17T11:31:39.905Z,34.55
2022-08-17T11:34:18.569Z,34.24
2022-08-17T11:37:07.709Z,34.00
2022-08-17T11:39:54.807Z,34.56
2022-08-17T11:42:36.369Z,34.63
2022-08-17T11:45:32.521Z,34.34
2022-08-17T11:48:28.766Z,34.81
2022-08-17T11:51:18.866Z,34.92
2022-08-17T11:54:31.566Z,35.16
2022-08-17T11:56:55.377Z,35.55
2022-08-17T11:59:55.326Z,35.71
2022-08-17T12:02:35.263Z,35.14
2022-08-17T12:05:27.440Z,34.29
2022-08-17T12:08:08.022Z,34.63
2022-08-17T12:10:39.708Z,35.03
2022-08-17T12:13:15.325Z,35.06
2022-08-17T12:15:52.918Z,35.34
2022-08-17T12:18:22.907Z,35.57
2022-08-17T12:21:27.900Z,35.17
2022-08-17T12:24:02.039Z,35.61
2022-08-17T12:26:33.875Z,35.68
2022-08-17T12:29:05.466Z,35.70
2022-08-17T12:31:37.999Z,35.46
2022-08-17T12:34:06.377Z,35.23
2022-08-17T12:36:36.836Z,35.29
2022-08-17T12:39:14.405Z,34.69
2022-08-17T12:41:45.444Z,34.33
2022-08-17T12:44:16.315Z,34.47
2022-08-17T12:46:54.599Z,34.71
2022-08-17T12:49:35.667Z,34.58
2022-08-17T12:52:13.594Z,34.69
2022-08-17T12:54:47.840Z,35.21
2022-08-17T12:57:18.729Z,35.58
2022-08-17T12:59:53.353Z,36.03
2022-08-17T13:02:39.297Z,36.02
2022-08-17T13:05:09.759Z,35.59
2022-08-17T13:07:43.775Z,35.86
2022-08-17T13:10:18.643Z,35.59
2022-08-17T13:12:49.682Z,36.13
2022-08-17T13:15:31.768Z,36.08
2022-08-17T13:18:05.132Z,35.68
2022-08-17T13:20:36.425Z,35.65
2022-08-17T13:23:12.352Z,35.85
2022-08-17T13:25:41.175Z,35.84
2022-08-17T13:28:35.682Z,35.89
2022-08-17T13:31:33.019Z,36.11
2022-08-17T13:34:16.287Z,35.96
2022-08-17T13:36:48.856Z,35.91
2022-08-17T13:39:23.325Z,36.30
2022-08-17T13:41:53.888Z,36.23
2022-08-17T13:44:33.445Z,36.18
2022-08-17T13:47:02.536Z,36.26
2022-08-17T13:49:41.983Z,35.85
2022-08-17T13:52:37.998Z,35.51
2022-08-17T13:55:17.029Z,35.38
2022-08-17T13:57:47.780Z,35.20
2022-08-17T14:00:22.100Z,35.04
2022-08-17T14:02:50.456Z,34.93
2022-08-17T14:05:18.709Z,34.45
2022-08-17T14:07:47.258Z,34.82
2022-08-17T14:10:19.035Z,35.07
2022-08-17T14:12:47.809Z,35.29
2022-08-17T14:15:20.624Z,35.41
2022-08-17T14:17:50.503Z,35.64
2022-08-17T14:20:21.489Z,35.78
2022-08-17T14:22:56.794Z,35.85
2022-08-17T14:25:28.976Z,35.73
2022-08-17T14:27:58.758Z,36.05
2022-08-17T14:30:29.833Z,36.12
2022-08-17T14:32:59.376Z,36.12
2022-08-17T14:35:29.399Z,36.09
2022-08-17T14:37:58.318Z,36.49
2022-08-17T14:40:28.225Z,36.40
2022-08-17T14:42:57.958Z,36.06
2022-08-17T14:45:29.570Z,36.05
2022-08-17T14:48:05.867Z,35.96
2022-08-17T14:50:35.728Z,35.51
2022-08-17T14:53:05.461Z,35.88
2022-08-17T14:55:36.889Z,36.28
2022-08-17T14:58:05.230Z,36.39
2022-08-17T15:00:33.665Z,36.08
2022-08-17T15:03:03.351Z,35.98
2022-08-17T15:05:36.791Z,35.86
2022-08-17T15:08:08.575Z,36.09
2022-08-17T15:10:39.188Z,36.08
2022-08-17T15:13:16.361Z,35.84
2022-08-17T15:15:44.774Z,35.62
2022-08-17T15:18:13.073Z,35.21
2022-08-17T15:20:44.540Z,35.55
2022-08-17T15:23:14.664Z,35.34
2022-08-17T15:25:44.406Z,35.20
2022-08-17T15:28:18.637Z,35.58
2022-08-17T15:30:46.882Z,35.81
2022-08-17T15:33:16.318Z,35.53
2022-08-17T15:35:45.243Z,34.69
2022-08-17T15:38:14.494Z,35.11
2022-08-17T15:40:46.501Z,35.27
2022-08-17T15:43:16.695Z,34.83
2022-08-17T15:45:45.144Z,35.00
2022-08-17T15:48:41.365Z,34.73
2022-08-17T15:51:11.687Z,35.26
2022-08-17T15:53:41.037Z,34.99
2022-08-17T15:56:13.743Z,34.31
2022-08-17T15:58:43.716Z,34.62
2022-08-17T16:01:14.985Z,35.02
2022-08-17T16:04:06.569Z,34.99
2022-08-17T16:06:35.709Z,34.95
2022-08-17T16:09:03.989Z,35.07
2022-08-17T16:11:33.586Z,34.95
2022-08-17T16:14:01.834Z,34.47
2022-08-17T16:16:31.494Z,34.27
2022-08-17T16:18:59.770Z,34.18
2022-08-17T16:21:31.108Z,34.56
2022-08-17T16:24:13.388Z,34.65
2022-08-17T16:26:46.582Z,34.83
2022-08-17T16:29:14.839Z,34.81
2022-08-17T16:31:43.350Z,34.90
2022-08-17T16:34:17.387Z,34.86
2022-08-17T16:36:54.955Z,34.92
2022-08-17T16:39:27.626Z,34.68
2022-08-17T16:41:58.165Z,34.76
2022-08-17T16:44:31.212Z,34.56
2022-08-17T16:47:00.812Z,34.43
2022-08-17T16:49:35.969Z,34.29
2022-08-17T16:52:11.307Z,33.98
2022-08-17T16:54:43.829Z,33.68
2022-08-17T16:57:17.509Z,33.43
2022-08-17T16:59:50.309Z,33.41
2022-08-17T17:02:28.723Z,33.36
2022-08-17T17:05:28.848Z,33.33
2022-08-17T17:08:09.612Z,33.33
2022-08-17T17:10:42.833Z,33.25
2022-08-17T17:13:15.432Z,33.10
2022-08-17T17:15:54.977Z,33.26
2022-08-17T17:18:30.308Z,33.05
2022-08-17T17:21:00.470Z,32.81
2022-08-17T17:23:39.336Z,32.47
2022-08-17T17:26:19.398Z,32.33
2022-08-17T17:29:03.204Z,32.06
2022-08-17T17:31:40.655Z,31.95
2022-08-17T17:34:13.831Z,31.75
2022-08-17T17:36:47.005Z,31.60
2022-08-17T17:39:18.986Z,31.38
2022-08-17T17:41:52.470Z,31.22
2022-08-17T17:44:28.728Z,31.04
2022-08-17T17:47:01.893Z,30.92
2022-08-17T17:49:33.896Z,30.85
2022-08-17T17:52:15.573Z,30.68
2022-08-17T17:55:03.606Z,30.57
2022-08-17T17:57:42.375Z,30.58
2022-08-17T18:00:15.955Z,30.38
2022-08-17T18:02:56.643Z,30.33
2022-08-17T18:05:35.922Z,30.20
2022-08-17T18:08:13.734Z,30.18
2022-08-17T18:10:49.677Z,29.96
2022-08-17T18:13:26.631Z,29.92
2022-08-17T18:16:00.819Z,29.83
2022-08-17T18:18:38.665Z,29.72
2022-08-17T18:21:16.810Z,30.03
2022-08-17T18:23:56.693Z,29.96
2022-08-17T18:26:46.911Z,29.63
2022-08-17T18:29:23.664Z,29.57
2022-08-17T18:32:15.090Z,29.28
2022-08-17T18:34:47.544Z,28.49
2022-08-17T18:37:32.979Z,28.49
2022-08-17T18:40:24.545Z,28.01
2022-08-17T18:43:02.957Z,27.73
2022-08-17T18:45:38.589Z,27.87
2022-08-17T18:48:24.866Z,27.63
2022-08-17T18:50:54.668Z,27.62
2022-08-17T18:53:33.315Z,27.19
2022-08-17T18:56:30.515Z,27.11
2022-08-17T18:59:13.217Z,27.50
2022-08-17T19:01:54.423Z,27.45
2022-08-17T19:04:58.790Z,27.90
2022-08-17T19:07:31.193Z,27.77
2022-08-17T19:10:08.156Z,27.62
2022-08-17T19:12:42.061Z,27.81
2022-08-17T19:15:13.663Z,27.66
2022-08-17T19:17:48.546Z,27.53
2022-08-17T19:20:25.813Z,27.25
2022-08-17T19:23:08.176Z,26.88
2022-08-17T19:25:41.714Z,26.83
2022-08-17T19:28:21.540Z,26.77
2022-08-17T19:30:52.078Z,26.65
2022-08-17T19:33:20.838Z,26.65
2022-08-17T19:36:02.084Z,26.58
2022-08-17T19:38:45.917Z,26.64
2022-08-17T19:41:25.209Z,26.32
2022-08-17T19:44:10.483Z,26.56
2022-08-17T19:46:49.825Z,25.63
2022-08-17T19:49:33.298Z,25.92
2022-08-17T19:52:24.124Z,25.77
2022-08-17T19:54:59.568Z,25.67
2022-08-17T19:57:41.810Z,25.71
2022-08-17T20:00:13.447Z,25.96
2022-08-17T20:02:51.300Z,25.71
2022-08-17T20:05:23.051Z,25.61
2022-08-17T20:07:58.049Z,25.77
2022-08-17T20:10:48.149Z,25.75
2022-08-17T20:13:33.172Z,25.84
2022-08-17T20:16:03.157Z,25.70
2022-08-17T20:18:38.295Z,25.73
2022-08-17T20:21:20.395Z,25.63
2022-08-17T20:23:54.674Z,25.73
2022-08-17T20:26:27.406Z,25.70
2022-08-17T20:29:37.251Z,25.31
2022-08-17T20:32:23.775Z,25.09
2022-08-17T20:35:06.953Z,25.23
2022-08-17T20:37:36.859Z,25.13
2022-08-17T20:40:36.542Z,25.09
2022-08-17T20:43:46.762Z,25.00
2022-08-17T20:46:47.998Z,24.81
2022-08-17T20:49:28.082Z,24.67
2022-08-17T20:52:02.834Z,23.92
2022-08-17T20:54:46.126Z,24.33
2022-08-17T20:57:50.952Z,24.55
2022-08-17T21:00:50.318Z,24.30
2022-08-17T21:03:50.287Z,23.44
2022-08-17T21:06:23.360Z,23.10
2022-08-17T21:08:57.713Z,23.10
2022-08-17T21:12:02.945Z,23.11
2022-08-17T21:14:45.294Z,22.80
2022-08-17T21:17:36.734Z,22.70
2022-08-17T21:20:12.086Z,22.62
2022-08-17T21:22:52.983Z,22.38
2022-08-17T21:25:49.182Z,22.28
2022-08-17T21:28:22.878Z,22.25
2022-08-17T21:31:01.154Z,22.32
2022-08-17T21:33:33.671Z,22.66
2022-08-17T21:36:24.989Z,22.86
2022-08-17T21:39:09.129Z,22.86
2022-08-17T21:41:52.873Z,22.86
2022-08-17T21:44:30.978Z,22.49
2022-08-17T21:47:16.687Z,22.11
2022-08-17T21:49:46.497Z,21.96
2022-08-17T21:52:17.568Z,21.73
2022-08-17T21:54:54.468Z,21.36
2022-08-17T21:57:28.044Z,21.41
2022-08-17T21:59:58.780Z,21.60
2022-08-17T22:02:30.726Z,21.88
2022-08-17T22:05:02.923Z,22.00
2022-08-17T22:07:41.101Z,21.94
2022-08-17T22:10:31.175Z,21.88
2022-08-17T22:13:16.870Z,22.07
2022-08-17T22:15:48.257Z,22.15
2022-08-17T22:18:20.967Z,21.91
2022-08-17T22:20:52.728Z,21.59
2022-08-17T22:23:44.920Z,21.39
2022-08-17T22:26:15.600Z,21.25
2022-08-17T22:28:46.799Z,21.36
2022-08-17T22:31:17.338Z,21.49
2022-08-17T22:33:49.050Z,21.53
2022-08-17T22:36:29.221Z,21.09
2022-08-17T22:38:59.417Z,20.64
2022-08-17T22:41:39.275Z,20.84
2022-08-17T22:44:27.255Z,21.18
2022-08-17T22:47:00.176Z,21.18
2022-08-17T22:49:32.474Z,21.26
2022-08-17T22:52:07.926Z,20.96
2022-08-17T22:54:53.564Z,20.88
2022-08-17T22:57:52.661Z,20.57
2022-08-17T23:00:34.622Z,20.43
2022-08-17T23:03:10.431Z,20.70
2022-08-17T23:05:40.926Z,20.92
2022-08-17T23:08:12.879Z,20.90
2022-08-17T23:10:45.457Z,20.80
2022-08-17T23:13:14.030Z,20.67
2022-08-17T23:15:43.112Z,20.40
2022-08-17T23:18:11.519Z,20.16
2022-08-17T23:20:41.955Z,19.84
2022-08-17T23:23:13.949Z,19.77
2022-08-17T23:25:44.566Z,19.57
2022-08-17T23:28:13.617Z,19.61
2022-08-17T23:30:44.742Z,19.68
2022-08-17T23:33:19.638Z,19.78
2022-08-17T23:35:47.917Z,19.95
2022-08-17T23:38:17.569Z,19.86
2022-08-17T23:40:45.972Z,19.70
2022-08-17T23:43:25.301Z,19.72
2022-08-17T23:45:57.603Z,19.78
2022-08-17T23:48:35.134Z,19.79
2022-08-17T23:51:09.685Z,19.91
2022-08-17T23:53:44.138Z,20.05
2022-08-17T23:56:12.378Z,20.01
2022-08-17T23:58:42.363Z,19.86
